Marietta, South Carolina
Current Conditions -  °F | °C
As of 3:53 AM on Friday 19 Dec 2014 (Local Time) from KGMU Reporting Station
Clear Clear  
Wind Chill: 38°   Ceiling: Unl
Heat Index: 43°   Visibility: 10mi
Dew Point: 28°   Wind: 9mph
Humidity: 56%   Direction: 360°N
Pressure: 30.08"   Gusts: NA
Location:  35.02°N, 82.5°W
Report Text: KGMU 190853Z AUTO 36008KT 10SM CLR 06/M02 A3008 RMK AO2 SLP188 T00611022 50001
Loading
Personal Weather Stations






























Interactive Weather Map New forecast layout! Learn more

10-Day Weather Forecast

Advertisements
Track Severe Weather on mobile